Time;durP1;ratioP1;P1;durP2;ratioP2;P2;SDS_P1;SDS_P2;PMS_P1;PMS_P2;Temp;Humidity;BMP_temperature;BMP_pressure;BME280_temperature;BME280_humidity;BME280_pressure;Samples;Min_cycle;Max_cycle;Signal;HPM_P1;HPM_P2
2022/12/23 00:00:00;;;;;;;1.6;1.6;;;;;;;10.0;100.0;100100;;;;
2022/12/23 00:01:02;;;;;;;1.6;1.6;;;;;;;10.0;100.0;100100;;;;
2022/12/23 00:02:00;;;;;;;1.6;1.6;;;;;;;9.9;100.0;100100;;;;
2022/12/23 00:03:01;;;;;;;1.6;1.6;;;;;;;9.9;100.0;100100;;;;
2022/12/23 00:04:00;;;;;;;1.6;1.6;;;;;;;9.9;100.0;100110;;;;
2022/12/23 00:05:00;;;;;;;1.6;1.6;;;;;;;9.9;100.0;100110;;;;
2022/12/23 00:06:00;;;;;;;1.6;1.6;;;;;;;9.9;100.0;100110;;;;
2022/12/23 00:07:00;;;;;;;1.6;1.6;;;;;;;9.9;100.0;100110;;;;
2022/12/23 00:08:00;;;;;;;1.3;1.3;;;;;;;9.9;100.0;100110;;;;
2022/12/23 00:09:00;;;;;;;1.3;1.3;;;;;;;9.9;100.0;100110;;;;
2022/12/23 00:10:00;;;;;;;1.3;1.3;;;;;;;9.9;100.0;100110;;;;
2022/12/23 00:11:00;;;;;;;1.3;1.3;;;;;;;9.9;100.0;100110;;;;
2022/12/23 00:15:07;;;;;;;1.3;1.3;;;;;;;9.9;100.0;100110;;;;
2022/12/23 00:16:05;;;;;;;1.3;1.3;;;;;;;9.9;100.0;100110;;;;
2022/12/23 00:17:00;;;;;;;1.3;1.3;;;;;;;9.9;100.0;100110;;;;
2022/12/23 00:18:00;;;;;;;1.3;1.3;;;;;;;10.0;100.0;100120;;;;
2022/12/23 00:19:00;;;;;;;1.3;1.3;;;;;;;10.0;100.0;100120;;;;
2022/12/23 00:20:01;;;;;;;1.3;1.3;;;;;;;10.0;100.0;100120;;;;
2022/12/23 00:21:09;;;;;;;1.3;1.3;;;;;;;10.0;100.0;100120;;;;
2022/12/23 00:22:00;;;;;;;1.3;1.3;;;;;;;10.0;100.0;100120;;;;
2022/12/23 00:23:03;;;;;;;1.3;1.3;;;;;;;10.0;100.0;100120;;;;
2022/12/23 00:24:00;;;;;;;1.3;1.3;;;;;;;10.0;100.0;100130;;;;
2022/12/23 00:25:00;;;;;;;1.3;1.3;;;;;;;10.0;100.0;100130;;;;
2022/12/23 00:26:00;;;;;;;1.3;1.3;;;;;;;10.0;100.0;100130;;;;
2022/12/23 00:27:00;;;;;;;1.3;1.3;;;;;;;10.0;100.0;100130;;;;
2022/12/23 00:28:00;;;;;;;0.8;0.8;;;;;;;10.0;100.0;100120;;;;
2022/12/23 00:29:00;;;;;;;0.8;0.8;;;;;;;10.0;100.0;100120;;;;
2022/12/23 00:30:00;;;;;;;0.8;0.8;;;;;;;10.0;100.0;100130;;;;
2022/12/23 00:31:02;;;;;;;0.8;0.8;;;;;;;10.0;100.0;100130;;;;
2022/12/23 00:32:00;;;;;;;0.8;0.8;;;;;;;10.0;100.0;100130;;;;
2022/12/23 00:33:00;;;;;;;0.8;0.8;;;;;;;10.0;100.0;100130;;;;
2022/12/23 00:34:00;;;;;;;0.8;0.8;;;;;;;10.0;100.0;100130;;;;
2022/12/23 00:35:00;;;;;;;0.8;0.8;;;;;;;10.0;100.0;100130;;;;
2022/12/23 00:36:01;;;;;;;0.8;0.8;;;;;;;10.0;100.0;100140;;;;
2022/12/23 00:37:00;;;;;;;0.8;0.8;;;;;;;10.0;100.0;100140;;;;
2022/12/23 00:38:00;;;;;;;0.8;0.8;;;;;;;10.0;100.0;100130;;;;
2022/12/23 00:43:00;;;;;;;0.8;0.8;;;;;;;10.0;100.0;100140;;;;
2022/12/23 00:44:01;;;;;;;0.8;0.8;;;;;;;10.0;100.0;100140;;;;
2022/12/23 00:45:14;;;;;;;0.8;0.8;;;;;;;10.0;100.0;100140;;;;
2022/12/23 00:46:00;;;;;;;0.8;0.8;;;;;;;10.0;100.0;100140;;;;
2022/12/23 00:47:00;;;;;;;0.8;0.8;;;;;;;10.0;100.0;100140;;;;
2022/12/23 00:50:00;;;;;;;0.9;0.9;;;;;;;10.0;100.0;100150;;;;
2022/12/23 00:51:00;;;;;;;0.9;0.9;;;;;;;10.0;100.0;100150;;;;
2022/12/23 00:52:00;;;;;;;0.9;0.9;;;;;;;9.9;100.0;100140;;;;
2022/12/23 00:53:00;;;;;;;0.9;0.9;;;;;;;9.9;100.0;100140;;;;
2022/12/23 00:54:00;;;;;;;0.9;0.9;;;;;;;10.0;100.0;100150;;;;
2022/12/23 00:55:00;;;;;;;0.9;0.9;;;;;;;10.0;100.0;100150;;;;
2022/12/23 00:56:00;;;;;;;0.9;0.9;;;;;;;10.0;100.0;100150;;;;
2022/12/23 00:57:00;;;;;;;0.9;0.9;;;;;;;10.0;100.0;100150;;;;
2022/12/23 00:58:00;;;;;;;0.9;0.9;;;;;;;9.9;100.0;100160;;;;
2022/12/23 00:59:00;;;;;;;0.9;0.9;;;;;;;9.9;100.0;100160;;;;
2022/12/23 01:00:00;;;;;;;0.9;0.9;;;;;;;10.0;100.0;100160;;;;
2022/12/23 01:06:01;;;;;;;0.9;0.9;;;;;;;9.9;100.0;100170;;;;
2022/12/23 01:07:01;;;;;;;0.9;0.9;;;;;;;9.9;100.0;100170;;;;
2022/12/23 01:08:00;;;;;;;1.0;1.0;;;;;;;9.9;100.0;100170;;;;
2022/12/23 01:09:00;;;;;;;1.0;1.0;;;;;;;9.9;100.0;100170;;;;
2022/12/23 01:10:00;;;;;;;1.0;1.0;;;;;;;10.0;100.0;100170;;;;
2022/12/23 01:11:02;;;;;;;1.0;1.0;;;;;;;10.0;100.0;100170;;;;
2022/12/23 01:12:01;;;;;;;1.0;1.0;;;;;;;10.0;100.0;100170;;;;
2022/12/23 01:13:00;;;;;;;1.0;1.0;;;;;;;10.0;100.0;100170;;;;
2022/12/23 01:14:00;;;;;;;1.0;1.0;;;;;;;10.0;100.0;100170;;;;
2022/12/23 01:15:00;;;;;;;1.0;1.0;;;;;;;10.0;100.0;100170;;;;
2022/12/23 01:16:02;;;;;;;1.0;1.0;;;;;;;10.0;100.0;100170;;;;
2022/12/23 01:17:00;;;;;;;1.0;1.0;;;;;;;10.0;100.0;100170;;;;
2022/12/23 01:18:00;;;;;;;1.0;1.0;;;;;;;10.0;100.0;100170;;;;
2022/12/23 01:19:00;;;;;;;1.0;1.0;;;;;;;10.0;100.0;100170;;;;
2022/12/23 01:20:00;;;;;;;1.0;1.0;;;;;;;10.0;100.0;100170;;;;
2022/12/23 01:21:02;;;;;;;1.0;1.0;;;;;;;10.0;100.0;100170;;;;
2022/12/23 01:22:00;;;;;;;1.0;1.0;;;;;;;10.0;100.0;100170;;;;
2022/12/23 01:23:00;;;;;;;1.0;1.0;;;;;;;10.0;100.0;100170;;;;
2022/12/23 01:24:00;;;;;;;1.0;1.0;;;;;;;10.0;100.0;100180;;;;
2022/12/23 01:25:00;;;;;;;1.0;1.0;;;;;;;10.0;100.0;100180;;;;
2022/12/23 01:26:01;;;;;;;1.0;1.0;;;;;;;10.0;100.0;100180;;;;
2022/12/23 01:27:00;;;;;;;1.0;1.0;;;;;;;10.0;100.0;100180;;;;
2022/12/23 01:28:00;;;;;;;0.9;0.9;;;;;;;9.9;100.0;100170;;;;
2022/12/23 01:29:00;;;;;;;0.9;0.9;;;;;;;9.9;100.0;100170;;;;
2022/12/23 01:30:00;;;;;;;0.9;0.9;;;;;;;9.9;100.0;100180;;;;
2022/12/23 01:31:02;;;;;;;0.9;0.9;;;;;;;9.9;100.0;100180;;;;
2022/12/23 01:32:00;;;;;;;0.9;0.9;;;;;;;9.9;100.0;100180;;;;
2022/12/23 01:33:00;;;;;;;0.9;0.9;;;;;;;9.9;100.0;100180;;;;
2022/12/23 01:34:00;;;;;;;0.9;0.9;;;;;;;10.0;100.0;100170;;;;
2022/12/23 01:35:00;;;;;;;0.9;0.9;;;;;;;10.0;100.0;100170;;;;
2022/12/23 01:36:03;;;;;;;0.9;0.9;;;;;;;10.0;100.0;100180;;;;
2022/12/23 01:37:00;;;;;;;0.9;0.9;;;;;;;10.0;100.0;100180;;;;
2022/12/23 01:38:00;;;;;;;0.9;0.9;;;;;;;9.9;100.0;100180;;;;
2022/12/23 01:39:00;;;;;;;0.9;0.9;;;;;;;9.9;100.0;100180;;;;
2022/12/23 01:40:00;;;;;;;0.9;0.9;;;;;;;9.9;100.0;100180;;;;
2022/12/23 01:41:00;;;;;;;0.9;0.9;;;;;;;9.9;100.0;100180;;;;
2022/12/23 01:43:00;;;;;;;0.9;0.9;;;;;;;9.9;100.0;100180;;;;
2022/12/23 01:44:00;;;;;;;0.9;0.9;;;;;;;10.0;100.0;100180;;;;
2022/12/23 01:45:03;;;;;;;0.9;0.9;;;;;;;10.0;100.0;100180;;;;
2022/12/23 01:46:00;;;;;;;0.9;0.9;;;;;;;9.9;100.0;100180;;;;
2022/12/23 01:47:10;;;;;;;1.1;1.1;;;;;;;9.9;100.0;100180;;;;
2022/12/23 01:48:05;;;;;;;1.1;1.1;;;;;;;9.9;100.0;100190;;;;
2022/12/23 01:49:00;;;;;;;1.1;1.1;;;;;;;9.9;100.0;100190;;;;
2022/12/23 01:50:00;;;;;;;1.1;1.1;;;;;;;9.9;100.0;100190;;;;
2022/12/23 01:51:03;;;;;;;1.1;1.1;;;;;;;9.9;100.0;100190;;;;
2022/12/23 01:52:00;;;;;;;1.1;1.1;;;;;;;9.9;100.0;100190;;;;
2022/12/23 01:53:07;;;;;;;1.1;1.1;;;;;;;9.9;100.0;100190;;;;
2022/12/23 01:54:01;;;;;;;1.1;1.1;;;;;;;9.9;100.0;100190;;;;
2022/12/23 01:55:00;;;;;;;1.1;1.1;;;;;;;9.9;100.0;100190;;;;
2022/12/23 01:56:00;;;;;;;1.1;1.1;;;;;;;9.9;100.0;100200;;;;
2022/12/23 01:57:00;;;;;;;1.1;1.1;;;;;;;9.9;100.0;100200;;;;
2022/12/23 01:58:06;;;;;;;1.1;1.1;;;;;;;9.9;100.0;100200;;;;
2022/12/23 01:59:02;;;;;;;1.1;1.1;;;;;;;9.9;100.0;100200;;;;
2022/12/23 02:04:03;;;;;;;1.1;1.1;;;;;;;9.9;100.0;100220;;;;
2022/12/23 02:05:01;;;;;;;1.1;1.1;;;;;;;9.9;100.0;100220;;;;
2022/12/23 02:09:15;;;;;;;1.1;1.1;;;;;;;10.0;100.0;100220;;;;
2022/12/23 02:10:01;;;;;;;0.8;0.8;;;;;;;10.0;100.0;100220;;;;
2022/12/23 02:11:10;;;;;;;0.8;0.8;;;;;;;10.0;100.0;100220;;;;
2022/12/23 02:12:01;;;;;;;0.8;0.8;;;;;;;10.0;100.0;100220;;;;
2022/12/23 02:13:10;;;;;;;0.8;0.8;;;;;;;10.0;100.0;100220;;;;
2022/12/23 02:17:08;;;;;;;0.8;0.8;;;;;;;10.0;100.0;100220;;;;
2022/12/23 02:18:06;;;;;;;0.8;0.8;;;;;;;9.9;100.0;100230;;;;
2022/12/23 02:19:08;;;;;;;0.8;0.8;;;;;;;9.9;100.0;100230;;;;
2022/12/23 02:20:10;;;;;;;0.8;0.8;;;;;;;10.0;100.0;100220;;;;
2022/12/23 02:21:01;;;;;;;0.8;0.8;;;;;;;10.0;100.0;100220;;;;
2022/12/23 02:22:10;;;;;;;0.8;0.8;;;;;;;10.0;100.0;100230;;;;
2022/12/23 02:23:01;;;;;;;0.8;0.8;;;;;;;10.0;100.0;100230;;;;
2022/12/23 02:24:01;;;;;;;0.8;0.8;;;;;;;10.0;100.0;100230;;;;
2022/12/23 02:25:10;;;;;;;0.8;0.8;;;;;;;10.0;100.0;100230;;;;
2022/12/23 02:26:10;;;;;;;0.8;0.8;;;;;;;10.0;100.0;100230;;;;
2022/12/23 02:27:08;;;;;;;1.2;1.2;;;;;;;10.0;100.0;100230;;;;
2022/12/23 02:28:10;;;;;;;1.2;1.2;;;;;;;10.0;100.0;100230;;;;
2022/12/23 02:29:08;;;;;;;1.2;1.2;;;;;;;10.0;100.0;100230;;;;
2022/12/23 02:30:10;;;;;;;1.2;1.2;;;;;;;10.0;100.0;100230;;;;
2022/12/23 02:31:09;;;;;;;1.2;1.2;;;;;;;10.0;100.0;100230;;;;
2022/12/23 02:32:10;;;;;;;1.2;1.2;;;;;;;10.0;100.0;100230;;;;
2022/12/23 02:33:03;;;;;;;1.2;1.2;;;;;;;10.0;100.0;100230;;;;
2022/12/23 02:34:10;;;;;;;1.2;1.2;;;;;;;9.9;100.0;100240;;;;
2022/12/23 02:35:10;;;;;;;1.2;1.2;;;;;;;9.9;100.0;100240;;;;
2022/12/23 02:36:08;;;;;;;1.2;1.2;;;;;;;9.9;100.0;100240;;;;
2022/12/23 02:37:10;;;;;;;1.2;1.2;;;;;;;9.9;100.0;100240;;;;
2022/12/23 02:38:08;;;;;;;1.2;1.2;;;;;;;9.9;100.0;100240;;;;
2022/12/23 02:39:04;;;;;;;1.2;1.2;;;;;;;9.9;100.0;100240;;;;
2022/12/23 02:40:10;;;;;;;1.2;1.2;;;;;;;9.9;100.0;100250;;;;
2022/12/23 02:41:10;;;;;;;1.2;1.2;;;;;;;9.9;100.0;100250;;;;
2022/12/23 02:42:05;;;;;;;1.2;1.2;;;;;;;10.0;100.0;100250;;;;
2022/12/23 02:43:05;;;;;;;1.2;1.2;;;;;;;10.0;100.0;100250;;;;
2022/12/23 02:44:07;;;;;;;1.2;1.2;;;;;;;9.9;100.0;100250;;;;
2022/12/23 02:45:10;;;;;;;1.2;1.2;;;;;;;9.9;100.0;100250;;;;
2022/12/23 02:46:06;;;;;;;1.2;1.2;;;;;;;10.0;100.0;100250;;;;
2022/12/23 02:47:04;;;;;;;0.8;0.8;;;;;;;10.0;100.0;100250;;;;
2022/12/23 02:48:03;;;;;;;0.8;0.8;;;;;;;10.0;100.0;100260;;;;
2022/12/23 02:49:00;;;;;;;0.8;0.8;;;;;;;10.0;100.0;100260;;;;
2022/12/23 02:50:04;;;;;;;0.8;0.8;;;;;;;10.0;100.0;100270;;;;
2022/12/23 02:51:01;;;;;;;0.8;0.8;;;;;;;10.0;100.0;100270;;;;
2022/12/23 02:52:02;;;;;;;0.8;0.8;;;;;;;9.9;100.0;100270;;;;
2022/12/23 02:53:02;;;;;;;0.8;0.8;;;;;;;9.9;100.0;100270;;;;
2022/12/23 02:54:02;;;;;;;0.8;0.8;;;;;;;9.9;100.0;100280;;;;
2022/12/23 02:55:05;;;;;;;0.8;0.8;;;;;;;9.9;100.0;100280;;;;
2022/12/23 02:56:02;;;;;;;0.8;0.8;;;;;;;10.0;100.0;100280;;;;
2022/12/23 02:57:02;;;;;;;0.8;0.8;;;;;;;10.0;100.0;100280;;;;
2022/12/23 02:58:04;;;;;;;0.8;0.8;;;;;;;9.9;100.0;100290;;;;
2022/12/23 02:59:05;;;;;;;0.8;0.8;;;;;;;9.9;100.0;100290;;;;
2022/12/23 03:00:02;;;;;;;0.8;0.8;;;;;;;10.0;100.0;100290;;;;
2022/12/23 03:01:02;;;;;;;0.8;0.8;;;;;;;10.0;100.0;100290;;;;
2022/12/23 03:02:00;;;;;;;0.8;0.8;;;;;;;10.0;100.0;100300;;;;
2022/12/23 03:03:01;;;;;;;0.8;0.8;;;;;;;10.0;100.0;100300;;;;
2022/12/23 03:04:00;;;;;;;0.8;0.8;;;;;;;9.9;100.0;100300;;;;
2022/12/23 03:05:01;;;;;;;0.8;0.8;;;;;;;9.9;100.0;100300;;;;
2022/12/23 03:06:01;;;;;;;0.8;0.8;;;;;;;9.9;100.0;100300;;;;
2022/12/23 03:07:08;;;;;;;1.0;1.0;;;;;;;9.9;100.0;100300;;;;
2022/12/23 03:08:03;;;;;;;1.0;1.0;;;;;;;10.0;100.0;100290;;;;
2022/12/23 03:09:00;;;;;;;1.0;1.0;;;;;;;10.0;100.0;100290;;;;
2022/12/23 03:10:08;;;;;;;1.0;1.0;;;;;;;9.9;100.0;100290;;;;
2022/12/23 03:11:02;;;;;;;1.0;1.0;;;;;;;9.9;100.0;100290;;;;
2022/12/23 03:12:04;;;;;;;1.0;1.0;;;;;;;10.0;100.0;100290;;;;
2022/12/23 03:13:10;;;;;;;1.0;1.0;;;;;;;10.0;100.0;100290;;;;
2022/12/23 03:14:09;;;;;;;1.0;1.0;;;;;;;10.0;100.0;100290;;;;
2022/12/23 03:15:07;;;;;;;1.0;1.0;;;;;;;10.0;100.0;100290;;;;
2022/12/23 03:16:10;;;;;;;1.0;1.0;;;;;;;10.0;100.0;100290;;;;
2022/12/23 03:17:03;;;;;;;1.0;1.0;;;;;;;10.0;100.0;100290;;;;
2022/12/23 03:18:01;;;;;;;1.0;1.0;;;;;;;10.0;100.0;100290;;;;
2022/12/23 03:19:08;;;;;;;1.0;1.0;;;;;;;10.0;100.0;100290;;;;
2022/12/23 03:20:10;;;;;;;1.0;1.0;;;;;;;9.9;100.0;100280;;;;
2022/12/23 03:21:10;;;;;;;1.0;1.0;;;;;;;9.9;100.0;100280;;;;
2022/12/23 03:22:10;;;;;;;1.0;1.0;;;;;;;9.9;100.0;100290;;;;
2022/12/23 03:23:06;;;;;;;1.0;1.0;;;;;;;9.9;100.0;100290;;;;
2022/12/23 03:24:10;;;;;;;1.0;1.0;;;;;;;10.0;100.0;100280;;;;
2022/12/23 03:25:00;;;;;;;1.0;1.0;;;;;;;10.0;100.0;100280;;;;
2022/12/23 03:26:00;;;;;;;1.0;1.0;;;;;;;9.9;100.0;100280;;;;
2022/12/23 03:27:07;;;;;;;1.2;1.2;;;;;;;9.9;100.0;100280;;;;
2022/12/23 03:28:00;;;;;;;1.2;1.2;;;;;;;9.9;100.0;100280;;;;
2022/12/23 03:29:04;;;;;;;1.2;1.2;;;;;;;9.9;100.0;100280;;;;
2022/12/23 03:30:02;;;;;;;1.2;1.2;;;;;;;10.0;100.0;100280;;;;
2022/12/23 03:31:02;;;;;;;1.2;1.2;;;;;;;10.0;100.0;100280;;;;
2022/12/23 03:32:02;;;;;;;1.2;1.2;;;;;;;10.0;100.0;100280;;;;
2022/12/23 03:33:03;;;;;;;1.2;1.2;;;;;;;10.0;100.0;100280;;;;
2022/12/23 03:34:02;;;;;;;1.2;1.2;;;;;;;10.0;100.0;100280;;;;
2022/12/23 03:35:01;;;;;;;1.2;1.2;;;;;;;10.0;100.0;100280;;;;
2022/12/23 03:36:05;;;;;;;1.2;1.2;;;;;;;10.1;100.0;100280;;;;
2022/12/23 03:37:03;;;;;;;1.2;1.2;;;;;;;10.1;100.0;100280;;;;
2022/12/23 03:38:01;;;;;;;1.2;1.2;;;;;;;10.0;100.0;100290;;;;
2022/12/23 03:39:02;;;;;;;1.2;1.2;;;;;;;10.0;100.0;100290;;;;
2022/12/23 03:40:06;;;;;;;1.2;1.2;;;;;;;9.9;100.0;100280;;;;
2022/12/23 03:41:04;;;;;;;1.2;1.2;;;;;;;9.9;100.0;100280;;;;
2022/12/23 03:42:06;;;;;;;1.2;1.2;;;;;;;9.9;100.0;100280;;;;
2022/12/23 03:43:03;;;;;;;1.2;1.2;;;;;;;9.9;100.0;100280;;;;
2022/12/23 03:44:03;;;;;;;1.2;1.2;;;;;;;9.9;100.0;100290;;;;
2022/12/23 03:45:13;;;;;;;1.2;1.2;;;;;;;9.9;100.0;100290;;;;
2022/12/23 03:46:07;;;;;;;1.2;1.2;;;;;;;9.9;100.0;100280;;;;
2022/12/23 03:47:03;;;;;;;0.8;0.8;;;;;;;9.9;100.0;100280;;;;
2022/12/23 03:48:04;;;;;;;0.8;0.8;;;;;;;9.9;100.0;100290;;;;
2022/12/23 03:49:02;;;;;;;0.8;0.8;;;;;;;9.9;100.0;100290;;;;
2022/12/23 03:50:04;;;;;;;0.8;0.8;;;;;;;9.9;100.0;100280;;;;
2022/12/23 03:51:03;;;;;;;0.8;0.8;;;;;;;9.9;100.0;100280;;;;
2022/12/23 03:52:04;;;;;;;0.8;0.8;;;;;;;9.9;100.0;100290;;;;
2022/12/23 03:53:05;;;;;;;0.8;0.8;;;;;;;9.9;100.0;100290;;;;
2022/12/23 03:54:04;;;;;;;0.8;0.8;;;;;;;9.9;100.0;100290;;;;
2022/12/23 03:55:03;;;;;;;0.8;0.8;;;;;;;9.9;100.0;100290;;;;
2022/12/23 03:56:02;;;;;;;0.8;0.8;;;;;;;9.9;100.0;100290;;;;
2022/12/23 03:57:03;;;;;;;0.8;0.8;;;;;;;9.9;100.0;100290;;;;
2022/12/23 03:58:07;;;;;;;0.8;0.8;;;;;;;9.9;100.0;100290;;;;
2022/12/23 03:59:06;;;;;;;0.8;0.8;;;;;;;9.9;100.0;100290;;;;
2022/12/23 04:00:00;;;;;;;0.8;0.8;;;;;;;10.0;100.0;100290;;;;
2022/12/23 04:01:09;;;;;;;0.8;0.8;;;;;;;10.0;100.0;100290;;;;
2022/12/23 04:02:07;;;;;;;0.8;0.8;;;;;;;9.9;100.0;100290;;;;
2022/12/23 04:03:01;;;;;;;0.8;0.8;;;;;;;9.9;100.0;100290;;;;
2022/12/23 04:04:07;;;;;;;0.8;0.8;;;;;;;9.9;100.0;100290;;;;
2022/12/23 04:05:10;;;;;;;0.8;0.8;;;;;;;9.9;100.0;100290;;;;
2022/12/23 04:06:01;;;;;;;0.8;0.8;;;;;;;9.9;100.0;100290;;;;
2022/12/23 04:07:03;;;;;;;1.4;1.4;;;;;;;9.9;100.0;100290;;;;
2022/12/23 04:08:04;;;;;;;1.4;1.4;;;;;;;9.9;100.0;100300;;;;
2022/12/23 04:09:01;;;;;;;1.4;1.4;;;;;;;9.9;100.0;100300;;;;
2022/12/23 04:10:00;;;;;;;1.4;1.4;;;;;;;9.8;100.0;100300;;;;
2022/12/23 04:11:01;;;;;;;1.4;1.4;;;;;;;9.8;100.0;100300;;;;
2022/12/23 04:12:00;;;;;;;1.4;1.4;;;;;;;9.8;100.0;100300;;;;
2022/12/23 04:13:00;;;;;;;1.4;1.4;;;;;;;9.8;100.0;100300;;;;
2022/12/23 04:14:00;;;;;;;1.4;1.4;;;;;;;9.8;100.0;100310;;;;
2022/12/23 04:15:00;;;;;;;1.4;1.4;;;;;;;9.8;100.0;100310;;;;
2022/12/23 04:16:01;;;;;;;1.4;1.4;;;;;;;9.8;100.0;100310;;;;
2022/12/23 04:17:00;;;;;;;1.4;1.4;;;;;;;9.8;100.0;100310;;;;
2022/12/23 04:18:01;;;;;;;1.4;1.4;;;;;;;9.9;100.0;100320;;;;
2022/12/23 04:19:00;;;;;;;1.4;1.4;;;;;;;9.9;100.0;100320;;;;
2022/12/23 04:20:00;;;;;;;1.4;1.4;;;;;;;9.9;100.0;100320;;;;
2022/12/23 04:21:00;;;;;;;1.4;1.4;;;;;;;9.9;100.0;100320;;;;
2022/12/23 04:22:00;;;;;;;1.4;1.4;;;;;;;9.8;100.0;100320;;;;
2022/12/23 04:23:00;;;;;;;1.4;1.4;;;;;;;9.8;100.0;100320;;;;
2022/12/23 04:24:00;;;;;;;1.4;1.4;;;;;;;9.8;100.0;100320;;;;
2022/12/23 04:25:00;;;;;;;1.4;1.4;;;;;;;9.8;100.0;100320;;;;
2022/12/23 04:26:00;;;;;;;1.4;1.4;;;;;;;9.8;100.0;100320;;;;
2022/12/23 04:27:00;;;;;;;1.0;1.0;;;;;;;9.8;100.0;100320;;;;
2022/12/23 04:28:00;;;;;;;1.0;1.0;;;;;;;9.9;100.0;100320;;;;
2022/12/23 04:29:00;;;;;;;1.0;1.0;;;;;;;9.9;100.0;100320;;;;
2022/12/23 04:30:00;;;;;;;1.0;1.0;;;;;;;9.9;100.0;100320;;;;
2022/12/23 04:31:00;;;;;;;1.0;1.0;;;;;;;9.9;100.0;100320;;;;
2022/12/23 04:32:00;;;;;;;1.0;1.0;;;;;;;9.9;100.0;100320;;;;
2022/12/23 04:33:00;;;;;;;1.0;1.0;;;;;;;9.9;100.0;100320;;;;
2022/12/23 04:34:00;;;;;;;1.0;1.0;;;;;;;9.9;100.0;100330;;;;
2022/12/23 04:35:00;;;;;;;1.0;1.0;;;;;;;9.9;100.0;100330;;;;
2022/12/23 04:36:00;;;;;;;1.0;1.0;;;;;;;9.9;100.0;100330;;;;
2022/12/23 04:37:00;;;;;;;1.0;1.0;;;;;;;9.9;100.0;100330;;;;
2022/12/23 04:38:00;;;;;;;1.0;1.0;;;;;;;9.9;100.0;100330;;;;
2022/12/23 04:39:00;;;;;;;1.0;1.0;;;;;;;9.9;100.0;100330;;;;
2022/12/23 04:40:00;;;;;;;1.0;1.0;;;;;;;9.9;100.0;100330;;;;
2022/12/23 04:41:00;;;;;;;1.0;1.0;;;;;;;9.9;100.0;100330;;;;
2022/12/23 04:42:00;;;;;;;1.0;1.0;;;;;;;9.8;100.0;100330;;;;
2022/12/23 04:43:00;;;;;;;1.0;1.0;;;;;;;9.8;100.0;100330;;;;
2022/12/23 04:44:00;;;;;;;1.0;1.0;;;;;;;9.8;100.0;100340;;;;
2022/12/23 04:45:01;;;;;;;1.0;1.0;;;;;;;9.8;100.0;100340;;;;
2022/12/23 04:46:00;;;;;;;1.0;1.0;;;;;;;9.8;100.0;100340;;;;
2022/12/23 04:47:00;;;;;;;0.9;0.9;;;;;;;9.8;100.0;100340;;;;
2022/12/23 04:48:00;;;;;;;0.9;0.9;;;;;;;9.8;100.0;100330;;;;
2022/12/23 04:49:00;;;;;;;0.9;0.9;;;;;;;9.8;100.0;100330;;;;
2022/12/23 04:50:00;;;;;;;0.9;0.9;;;;;;;9.8;100.0;100330;;;;
2022/12/23 04:51:01;;;;;;;0.9;0.9;;;;;;;9.8;100.0;100330;;;;
2022/12/23 04:52:00;;;;;;;0.9;0.9;;;;;;;9.8;100.0;100330;;;;
2022/12/23 04:53:00;;;;;;;0.9;0.9;;;;;;;9.8;100.0;100330;;;;
2022/12/23 04:54:00;;;;;;;0.9;0.9;;;;;;;9.8;100.0;100330;;;;
2022/12/23 04:55:00;;;;;;;0.9;0.9;;;;;;;9.8;100.0;100330;;;;
2022/12/23 04:56:00;;;;;;;0.9;0.9;;;;;;;9.8;100.0;100330;;;;
2022/12/23 04:57:00;;;;;;;0.9;0.9;;;;;;;9.8;100.0;100330;;;;
2022/12/23 04:58:00;;;;;;;0.9;0.9;;;;;;;9.8;100.0;100320;;;;
2022/12/23 04:59:01;;;;;;;0.9;0.9;;;;;;;9.8;100.0;100320;;;;
2022/12/23 05:00:00;;;;;;;0.9;0.9;;;;;;;9.7;100.0;100320;;;;
2022/12/23 05:01:05;;;;;;;0.9;0.9;;;;;;;9.7;100.0;100320;;;;
2022/12/23 05:02:01;;;;;;;0.9;0.9;;;;;;;9.8;100.0;100310;;;;
2022/12/23 05:03:00;;;;;;;0.9;0.9;;;;;;;9.8;100.0;100310;;;;
2022/12/23 05:04:00;;;;;;;0.9;0.9;;;;;;;9.8;100.0;100310;;;;
2022/12/23 05:05:00;;;;;;;0.9;0.9;;;;;;;9.8;100.0;100310;;;;
2022/12/23 05:06:00;;;;;;;0.9;0.9;;;;;;;9.7;100.0;100310;;;;
2022/12/23 05:07:00;;;;;;;2.1;2.0;;;;;;;9.7;100.0;100310;;;;
2022/12/23 05:08:01;;;;;;;2.1;2.0;;;;;;;9.8;100.0;100310;;;;
2022/12/23 05:09:00;;;;;;;2.1;2.0;;;;;;;9.8;100.0;100310;;;;
2022/12/23 05:10:00;;;;;;;2.1;2.0;;;;;;;9.8;100.0;100310;;;;
2022/12/23 05:11:00;;;;;;;2.1;2.0;;;;;;;9.8;100.0;100310;;;;
2022/12/23 05:12:00;;;;;;;2.1;2.0;;;;;;;9.8;100.0;100310;;;;
2022/12/23 05:13:00;;;;;;;2.1;2.0;;;;;;;9.8;100.0;100310;;;;
2022/12/23 05:14:00;;;;;;;2.1;2.0;;;;;;;9.9;100.0;100310;;;;
2022/12/23 05:15:00;;;;;;;2.1;2.0;;;;;;;9.9;100.0;100310;;;;
2022/12/23 05:16:01;;;;;;;2.1;2.0;;;;;;;9.8;100.0;100310;;;;
2022/12/23 05:17:07;;;;;;;2.1;2.0;;;;;;;9.8;100.0;100310;;;;
2022/12/23 05:18:00;;;;;;;2.1;2.0;;;;;;;9.8;100.0;100310;;;;
2022/12/23 05:19:00;;;;;;;2.1;2.0;;;;;;;9.8;100.0;100310;;;;
2022/12/23 05:20:00;;;;;;;2.1;2.0;;;;;;;9.8;100.0;100310;;;;
2022/12/23 05:21:00;;;;;;;2.1;2.0;;;;;;;9.8;100.0;100310;;;;
2022/12/23 05:22:00;;;;;;;2.1;2.0;;;;;;;9.8;100.0;100320;;;;
2022/12/23 05:23:00;;;;;;;2.1;2.0;;;;;;;9.8;100.0;100320;;;;
2022/12/23 05:24:00;;;;;;;2.1;2.0;;;;;;;9.8;100.0;100310;;;;
2022/12/23 05:25:00;;;;;;;2.1;2.0;;;;;;;9.8;100.0;100310;;;;
2022/12/23 05:26:00;;;;;;;2.1;2.0;;;;;;;9.8;100.0;100320;;;;
2022/12/23 05:27:00;;;;;;;0.9;0.9;;;;;;;9.8;100.0;100320;;;;
2022/12/23 05:28:00;;;;;;;0.9;0.9;;;;;;;9.8;100.0;100330;;;;
2022/12/23 05:29:00;;;;;;;0.9;0.9;;;;;;;9.8;100.0;100330;;;;
2022/12/23 05:30:01;;;;;;;0.9;0.9;;;;;;;9.8;100.0;100340;;;;
2022/12/23 05:31:01;;;;;;;0.9;0.9;;;;;;;9.8;100.0;100340;;;;
2022/12/23 05:32:00;;;;;;;0.9;0.9;;;;;;;9.8;100.0;100350;;;;
2022/12/23 05:33:00;;;;;;;0.9;0.9;;;;;;;9.8;100.0;100350;;;;
2022/12/23 05:34:06;;;;;;;0.9;0.9;;;;;;;9.8;100.0;100350;;;;
2022/12/23 05:35:00;;;;;;;0.9;0.9;;;;;;;9.8;100.0;100350;;;;
2022/12/23 05:36:00;;;;;;;0.9;0.9;;;;;;;9.8;100.0;100350;;;;
2022/12/23 05:37:00;;;;;;;0.9;0.9;;;;;;;9.8;100.0;100350;;;;
2022/12/23 05:38:02;;;;;;;0.9;0.9;;;;;;;9.8;100.0;100350;;;;
2022/12/23 05:39:00;;;;;;;0.9;0.9;;;;;;;9.8;100.0;100350;;;;
2022/12/23 05:40:00;;;;;;;0.9;0.9;;;;;;;9.8;100.0;100350;;;;
2022/12/23 05:41:01;;;;;;;0.9;0.9;;;;;;;9.8;100.0;100350;;;;
2022/12/23 05:42:00;;;;;;;0.9;0.9;;;;;;;9.8;100.0;100360;;;;
2022/12/23 05:43:00;;;;;;;0.9;0.9;;;;;;;9.8;100.0;100360;;;;
2022/12/23 05:44:00;;;;;;;0.9;0.9;;;;;;;9.8;100.0;100360;;;;
2022/12/23 05:45:00;;;;;;;0.9;0.9;;;;;;;9.8;100.0;100360;;;;
2022/12/23 05:46:00;;;;;;;0.9;0.9;;;;;;;9.9;100.0;100360;;;;
2022/12/23 05:47:00;;;;;;;0.8;0.8;;;;;;;9.9;100.0;100360;;;;
2022/12/23 05:48:00;;;;;;;0.8;0.8;;;;;;;9.8;100.0;100360;;;;
2022/12/23 05:49:00;;;;;;;0.8;0.8;;;;;;;9.8;100.0;100360;;;;
2022/12/23 05:50:01;;;;;;;0.8;0.8;;;;;;;9.8;100.0;100370;;;;
2022/12/23 05:51:00;;;;;;;0.8;0.8;;;;;;;9.8;100.0;100370;;;;
2022/12/23 05:52:00;;;;;;;0.8;0.8;;;;;;;9.8;100.0;100370;;;;
2022/12/23 05:53:00;;;;;;;0.8;0.8;;;;;;;9.8;100.0;100370;;;;
2022/12/23 05:54:00;;;;;;;0.8;0.8;;;;;;;9.9;100.0;100370;;;;
2022/12/23 05:55:00;;;;;;;0.8;0.8;;;;;;;9.9;100.0;100370;;;;
2022/12/23 05:56:02;;;;;;;0.8;0.8;;;;;;;9.9;100.0;100360;;;;
2022/12/23 05:57:00;;;;;;;0.8;0.8;;;;;;;9.9;100.0;100360;;;;
2022/12/23 05:58:00;;;;;;;0.8;0.8;;;;;;;9.9;100.0;100360;;;;
2022/12/23 05:59:00;;;;;;;0.8;0.8;;;;;;;9.9;100.0;100360;;;;
2022/12/23 06:00:00;;;;;;;0.8;0.8;;;;;;;9.8;100.0;100360;;;;
2022/12/23 06:01:01;;;;;;;0.8;0.8;;;;;;;9.8;100.0;100360;;;;
2022/12/23 06:02:00;;;;;;;0.8;0.8;;;;;;;9.8;100.0;100350;;;;
2022/12/23 06:03:01;;;;;;;0.8;0.8;;;;;;;9.8;100.0;100350;;;;
2022/12/23 06:04:00;;;;;;;0.8;0.8;;;;;;;9.8;100.0;100350;;;;
2022/12/23 06:05:00;;;;;;;0.8;0.8;;;;;;;9.8;100.0;100350;;;;
2022/12/23 06:06:00;;;;;;;0.8;0.8;;;;;;;9.8;100.0;100340;;;;
2022/12/23 06:07:00;;;;;;;1.0;1.0;;;;;;;9.8;100.0;100340;;;;
2022/12/23 06:08:00;;;;;;;1.0;1.0;;;;;;;9.8;100.0;100350;;;;
2022/12/23 06:09:00;;;;;;;1.0;1.0;;;;;;;9.8;100.0;100350;;;;
2022/12/23 06:10:00;;;;;;;1.0;1.0;;;;;;;9.9;100.0;100340;;;;
2022/12/23 06:11:02;;;;;;;1.0;1.0;;;;;;;9.9;100.0;100340;;;;
2022/12/23 06:12:00;;;;;;;1.0;1.0;;;;;;;9.8;100.0;100340;;;;
2022/12/23 06:13:00;;;;;;;1.0;1.0;;;;;;;9.8;100.0;100340;;;;
2022/12/23 06:14:01;;;;;;;1.0;1.0;;;;;;;9.8;100.0;100340;;;;
2022/12/23 06:15:01;;;;;;;1.0;1.0;;;;;;;9.8;100.0;100340;;;;
2022/12/23 06:16:00;;;;;;;1.0;1.0;;;;;;;9.7;100.0;100330;;;;
2022/12/23 06:17:00;;;;;;;1.0;1.0;;;;;;;9.7;100.0;100330;;;;
2022/12/23 06:18:00;;;;;;;1.0;1.0;;;;;;;9.7;100.0;100330;;;;
2022/12/23 06:19:01;;;;;;;1.0;1.0;;;;;;;9.7;100.0;100330;;;;
2022/12/23 06:20:00;;;;;;;1.0;1.0;;;;;;;9.7;100.0;100330;;;;
2022/12/23 06:21:00;;;;;;;1.0;1.0;;;;;;;9.7;100.0;100330;;;;
2022/12/23 06:22:00;;;;;;;1.0;1.0;;;;;;;9.8;100.0;100330;;;;
2022/12/23 06:23:00;;;;;;;1.0;1.0;;;;;;;9.8;100.0;100330;;;;
2022/12/23 06:24:00;;;;;;;1.0;1.0;;;;;;;9.8;100.0;100330;;;;
2022/12/23 06:25:00;;;;;;;1.0;1.0;;;;;;;9.8;100.0;100330;;;;
2022/12/23 06:26:01;;;;;;;1.0;1.0;;;;;;;9.8;100.0;100330;;;;
2022/12/23 06:27:00;;;;;;;1.3;1.3;;;;;;;9.8;100.0;100330;;;;
2022/12/23 06:28:00;;;;;;;1.3;1.3;;;;;;;9.8;100.0;100320;;;;
2022/12/23 06:29:01;;;;;;;1.3;1.3;;;;;;;9.8;100.0;100320;;;;
2022/12/23 06:30:00;;;;;;;1.3;1.3;;;;;;;9.7;100.0;100320;;;;
2022/12/23 06:31:00;;;;;;;1.3;1.3;;;;;;;9.7;100.0;100320;;;;
2022/12/23 06:32:01;;;;;;;1.3;1.3;;;;;;;9.7;100.0;100320;;;;
2022/12/23 06:33:00;;;;;;;1.3;1.3;;;;;;;9.7;100.0;100320;;;;
2022/12/23 06:34:00;;;;;;;1.3;1.3;;;;;;;9.8;100.0;100320;;;;
2022/12/23 06:35:00;;;;;;;1.3;1.3;;;;;;;9.8;100.0;100320;;;;
2022/12/23 06:36:00;;;;;;;1.3;1.3;;;;;;;9.7;100.0;100330;;;;
2022/12/23 06:37:00;;;;;;;1.3;1.3;;;;;;;9.7;100.0;100330;;;;
2022/12/23 06:38:00;;;;;;;1.3;1.3;;;;;;;9.8;100.0;100330;;;;
2022/12/23 06:39:00;;;;;;;1.3;1.3;;;;;;;9.8;100.0;100330;;;;
2022/12/23 06:40:00;;;;;;;1.3;1.3;;;;;;;9.7;100.0;100330;;;;
2022/12/23 06:41:00;;;;;;;1.3;1.3;;;;;;;9.7;100.0;100330;;;;
2022/12/23 06:42:00;;;;;;;1.3;1.3;;;;;;;9.7;100.0;100340;;;;
2022/12/23 06:43:00;;;;;;;1.3;1.3;;;;;;;9.7;100.0;100340;;;;
2022/12/23 06:44:00;;;;;;;1.3;1.3;;;;;;;9.8;100.0;100340;;;;
2022/12/23 06:45:00;;;;;;;1.3;1.3;;;;;;;9.8;100.0;100340;;;;
2022/12/23 06:46:01;;;;;;;1.3;1.3;;;;;;;9.8;100.0;100340;;;;
2022/12/23 06:47:00;;;;;;;1.3;1.3;;;;;;;9.8;100.0;100340;;;;
2022/12/23 06:48:00;;;;;;;1.3;1.3;;;;;;;9.8;100.0;100340;;;;
2022/12/23 06:49:00;;;;;;;1.3;1.3;;;;;;;9.8;100.0;100340;;;;
2022/12/23 06:50:00;;;;;;;1.3;1.3;;;;;;;9.7;100.0;100340;;;;
2022/12/23 06:51:00;;;;;;;1.3;1.3;;;;;;;9.7;100.0;100340;;;;
2022/12/23 06:52:00;;;;;;;1.3;1.3;;;;;;;9.7;100.0;100350;;;;